Eldorado — PEEA — position and weather

sailwx.info

Track history (hours):
 
Tides and Currents Weather Stations Pressure Air Temp Water Temp Dewpoint Dewpoint Depression Visibility Wind Speed Wind Dir Waves Ship Positions

Eldorado

Last reported at 2017-Jun-25 15:27 UTC. Time now 2017-Jun-26 10:35 UTC.
Position N 18°01' W 063°04'.

Length 38 m; draft 3 m.

Type: Sailing vessel. MMSI: 244670000.

Date/timePositionNaut miles runAvg speedWind from/ knotsBaromVisibWave heightAir tempDewpointWater temp
2017-Jun-25 15:27N 18°01' W 063°04'3 7.3
2017-Jun-25 15:00N 18°02' W 063°07'1 1.6
2017-Jun-25 14:29N 18°03' W 063°08'2 1.8
2017-Jun-25 13:28N 18°01' W 063°06'3 0.4
2017-Jun-25 06:12N 18°01' W 063°03'1 0.0
2017-Jun-23 15:41N 18°01' W 063°04'1 7.1
2017-Jun-23 15:28N 18°01' W 063°05'3 5.7
2017-Jun-23 14:58N 18°03' W 063°08'0 0.4
2017-Jun-23 13:58N 18°02' W 063°08'2 4.3
2017-Jun-23 13:30N 18°01' W 063°06'2 0.1
2017-Jun-22 15:39N 18°01' W 063°04'1 7.4
2017-Jun-22 15:29N 18°01' W 063°05'3 6.1
2017-Jun-22 15:01N 18°03' W 063°08'0 0.2
2017-Jun-22 14:28N 18°03' W 063°08'3 2.8
2017-Jun-22 13:30N 18°01' W 063°05'2 0.1
2017-Jun-21 15:31N 18°01' W 063°04'0 6.8
2017-Jun-21 15:28N 18°01' W 063°04'3 7.3
2017-Jun-21 15:00N 18°02' W 063°07'1 1.1
2017-Jun-21 14:27N 18°03' W 063°08'2 2.1
2017-Jun-21 13:30N 18°01' W 063°06'  
Track history (hours):
 
Tides and Currents Weather Stations Pressure Air Temp Water Temp Dewpoint Dewpoint Depression Visibility Wind Speed Wind Dir Waves Ship Positions

Eldorado

Last reported at 2017-Jun-25 15:27 UTC. Time now 2017-Jun-26 10:35 UTC.
Position N 18°01' W 063°04'.

Length 38 m; draft 3 m.

Type: Sailing vessel. MMSI: 244670000.

Date/timePositionNaut miles runAvg speedWind from/ knotsBaromVisibWave heightAir tempDewpointWater temp
2017-Jun-25 15:27N 18°01' W 063°04'3 7.3
2017-Jun-25 15:00N 18°02' W 063°07'1 1.6
2017-Jun-25 14:29N 18°03' W 063°08'2 1.8
2017-Jun-25 13:28N 18°01' W 063°06'3 0.4
2017-Jun-25 06:12N 18°01' W 063°03'1 0.0
2017-Jun-23 15:41N 18°01' W 063°04'1 7.1
2017-Jun-23 15:28N 18°01' W 063°05'3 5.7
2017-Jun-23 14:58N 18°03' W 063°08'0 0.4
2017-Jun-23 13:58N 18°02' W 063°08'2 4.3
2017-Jun-23 13:30N 18°01' W 063°06'2 0.1
2017-Jun-22 15:39N 18°01' W 063°04'1 7.4
2017-Jun-22 15:29N 18°01' W 063°05'3 6.1
2017-Jun-22 15:01N 18°03' W 063°08'0 0.2
2017-Jun-22 14:28N 18°03' W 063°08'3 2.8
2017-Jun-22 13:30N 18°01' W 063°05'2 0.1
2017-Jun-21 15:31N 18°01' W 063°04'0 6.8
2017-Jun-21 15:28N 18°01' W 063°04'3 7.3
2017-Jun-21 15:00N 18°02' W 063°07'1 1.1
2017-Jun-21 14:27N 18°03' W 063°08'2 2.1
2017-Jun-21 13:30N 18°01' W 063°06'  

Dump ship's entire track history